createdAt,value
2022-09-07T00:04:39.200Z,18.56
2022-09-07T00:09:40.392Z,18.13
2022-09-07T00:14:41.301Z,17.67
2022-09-07T00:19:42.226Z,17.23
2022-09-07T00:24:43.165Z,16.98
2022-09-07T00:29:46.692Z,17.04
2022-09-07T00:34:49.569Z,17.01
2022-09-07T00:39:51.246Z,16.99
2022-09-07T00:45:07.117Z,16.98
2022-09-07T00:50:16.409Z,16.78
2022-09-07T00:55:19.033Z,16.71
2022-09-07T01:00:20.516Z,16.67
2022-09-07T01:05:36.761Z,16.50
2022-09-07T01:10:38.112Z,16.78
2022-09-07T01:19:15.156Z,16.63
2022-09-07T01:27:41.521Z,16.20
2022-09-07T01:36:10.441Z,16.38
2022-09-07T01:41:29.576Z,16.14
2022-09-07T01:46:49.535Z,16.34
2022-09-07T01:51:57.149Z,16.16
2022-09-07T01:57:05.591Z,16.14
2022-09-07T02:02:18.254Z,16.04
2022-09-07T02:10:00.940Z,16.05
2022-09-07T02:15:07.522Z,16.05
2022-09-07T02:20:12.882Z,16.26
2022-09-07T02:25:21.945Z,16.17
2022-09-07T02:30:22.822Z,16.25
2022-09-07T02:35:24.150Z,16.25
2022-09-07T02:40:25.010Z,16.26
2022-09-07T02:45:33.138Z,16.15
2022-09-07T02:50:51.452Z,16.11
2022-09-07T02:56:10.047Z,16.03
2022-09-07T03:03:03.485Z,15.99
2022-09-07T03:08:44.049Z,15.89
2022-09-07T03:13:44.908Z,15.89
2022-09-07T03:18:46.029Z,15.84
2022-09-07T03:23:51.570Z,15.89
2022-09-07T03:28:53.061Z,15.91
2022-09-07T03:33:54.391Z,15.54
2022-09-07T03:38:58.532Z,15.48
2022-09-07T03:44:04.326Z,15.60
2022-09-07T03:49:06.026Z,15.39
2022-09-07T03:54:07.639Z,15.37
2022-09-07T03:59:08.554Z,15.50
2022-09-07T04:04:09.727Z,15.50
2022-09-07T04:09:13.213Z,15.58
2022-09-07T04:14:14.096Z,15.64
2022-09-07T04:19:15.317Z,15.71
2022-09-07T04:24:17.181Z,15.58
2022-09-07T04:29:18.209Z,15.62
2022-09-07T04:34:19.893Z,15.64
2022-09-07T04:39:20.759Z,15.65
2022-09-07T04:44:21.674Z,15.45
2022-09-07T04:49:22.815Z,15.38
2022-09-07T04:54:23.986Z,15.27
2022-09-07T04:59:25.006Z,15.09
2022-09-07T05:04:26.012Z,15.01
2022-09-07T05:09:26.972Z,15.12
2022-09-07T05:14:28.268Z,15.32
2022-09-07T05:19:29.766Z,15.40
2022-09-07T05:24:30.647Z,15.44
2022-09-07T05:35:02.685Z,15.46
2022-09-07T05:40:05.152Z,15.94
2022-09-07T05:45:06.930Z,16.18
2022-09-07T05:50:08.904Z,16.54
2022-09-07T05:55:28.723Z,16.91
2022-09-07T06:00:31.186Z,17.22
2022-09-07T06:05:32.248Z,17.41
2022-09-07T06:15:43.525Z,17.28
2022-09-07T06:20:44.530Z,17.30
2022-09-07T06:25:49.446Z,17.34
2022-09-07T06:30:50.371Z,17.41
2022-09-07T06:35:59.671Z,17.33
2022-09-07T06:52:04.605Z,17.44
2022-09-07T06:57:08.293Z,17.89
2022-09-07T07:02:11.134Z,18.15
2022-09-07T07:07:12.703Z,18.27
2022-09-07T07:12:13.644Z,18.52
2022-09-07T07:17:14.510Z,18.45
2022-09-07T07:27:47.107Z,18.34
2022-09-07T07:32:47.990Z,18.52
2022-09-07T07:44:00.534Z,19.02
2022-09-07T07:49:01.618Z,19.30
2022-09-07T07:54:02.769Z,19.47
2022-09-07T07:59:03.872Z,19.16
2022-09-07T08:04:04.772Z,19.09
2022-09-07T08:09:05.633Z,19.22
2022-09-07T08:14:07.737Z,19.38
2022-09-07T08:19:08.983Z,19.65
2022-09-07T08:24:10.059Z,19.94
2022-09-07T08:29:10.859Z,20.15
2022-09-07T08:34:11.772Z,20.33
2022-09-07T08:39:12.537Z,20.41
2022-09-07T08:44:23.602Z,20.71
2022-09-07T08:49:47.403Z,20.93
2022-09-07T08:55:08.553Z,21.18
2022-09-07T09:00:16.076Z,21.26
2022-09-07T09:05:32.130Z,21.28
2022-09-07T09:11:09.363Z,21.42
2022-09-07T09:16:57.391Z,21.60
2022-09-07T09:22:15.198Z,21.95
2022-09-07T09:27:16.195Z,21.91
2022-09-07T09:32:40.716Z,22.24
2022-09-07T09:37:42.495Z,22.39
2022-09-07T09:42:43.745Z,22.69
2022-09-07T09:47:50.462Z,22.61
2022-09-07T09:52:52.581Z,22.69
2022-09-07T10:09:17.108Z,23.10
2022-09-07T10:14:24.893Z,23.57
2022-09-07T10:19:43.648Z,23.76
2022-09-07T10:24:44.600Z,23.87
2022-09-07T10:29:45.898Z,23.81
2022-09-07T10:38:13.190Z,23.99
2022-09-07T10:50:22.144Z,24.29
2022-09-07T10:55:39.391Z,24.46
2022-09-07T11:00:55.195Z,24.48
2022-09-07T11:06:19.442Z,24.38
2022-09-07T11:17:25.801Z,23.07
2022-09-07T11:22:34.469Z,22.64
2022-09-07T11:27:49.066Z,22.40
2022-09-07T11:33:01.249Z,23.04
2022-09-07T11:40:49.250Z,23.00
2022-09-07T11:46:13.977Z,22.31
2022-09-07T11:51:34.635Z,22.04
2022-09-07T11:56:39.748Z,22.03
2022-09-07T12:09:02.973Z,23.01
2022-09-07T12:15:55.418Z,23.74
2022-09-07T12:20:56.229Z,24.13
2022-09-07T12:33:05.338Z,23.64
2022-09-07T12:39:32.410Z,23.45
2022-09-07T12:44:34.673Z,24.47
2022-09-07T12:50:20.748Z,24.48
2022-09-07T13:02:49.020Z,24.88
2022-09-07T13:11:42.339Z,24.90
2022-09-07T13:29:04.428Z,24.85
2022-09-07T13:35:24.615Z,25.22
2022-09-07T13:40:29.561Z,24.52
2022-09-07T13:49:09.440Z,24.21
2022-09-07T13:54:55.522Z,23.72
2022-09-07T13:59:57.171Z,23.53
2022-09-07T14:05:00.187Z,23.48
2022-09-07T14:10:22.468Z,23.38
2022-09-07T14:15:31.767Z,23.26
2022-09-07T14:20:41.294Z,23.35
2022-09-07T14:31:15.901Z,23.55
2022-09-07T14:36:41.859Z,23.47
2022-09-07T14:41:46.103Z,23.28
2022-09-07T14:46:49.613Z,23.10
2022-09-07T14:51:54.725Z,22.98
2022-09-07T14:57:05.759Z,22.97
2022-09-07T15:04:00.267Z,22.98
2022-09-07T15:09:02.284Z,22.99
2022-09-07T15:14:11.649Z,23.15
2022-09-07T15:19:33.560Z,23.05
2022-09-07T15:24:35.566Z,22.85
2022-09-07T15:29:36.524Z,22.97
2022-09-07T15:34:37.474Z,23.00
2022-09-07T15:39:39.163Z,22.96
2022-09-07T15:44:40.020Z,22.86
2022-09-07T15:49:45.776Z,22.75
2022-09-07T15:54:50.586Z,22.65
2022-09-07T15:59:51.571Z,22.54
2022-09-07T16:04:52.858Z,22.44
2022-09-07T16:09:54.340Z,22.26
2022-09-07T16:14:56.685Z,22.09
2022-09-07T16:20:02.181Z,22.04
2022-09-07T16:25:03.618Z,21.86
2022-09-07T16:30:05.893Z,21.76
2022-09-07T16:35:07.067Z,21.73
2022-09-07T16:40:09.079Z,21.68
2022-09-07T16:50:52.599Z,21.63
2022-09-07T16:56:01.384Z,21.51
2022-09-07T17:01:03.120Z,21.51
2022-09-07T17:06:06.790Z,21.47
2022-09-07T17:11:13.419Z,21.43
2022-09-07T17:16:20.692Z,21.38
2022-09-07T17:21:22.204Z,21.17
2022-09-07T17:26:26.700Z,21.03
2022-09-07T17:37:01.600Z,20.91
2022-09-07T17:42:02.738Z,20.84
2022-09-07T17:47:04.390Z,20.81
2022-09-07T17:52:05.151Z,20.70
2022-09-07T17:57:05.971Z,20.62
2022-09-07T18:02:09.487Z,20.54
2022-09-07T18:07:10.273Z,20.48
2022-09-07T18:12:11.379Z,20.40
2022-09-07T18:17:12.472Z,20.39
2022-09-07T18:22:15.115Z,20.29
2022-09-07T18:27:16.752Z,20.21
2022-09-07T18:32:17.755Z,20.08
2022-09-07T18:37:19.539Z,19.98
2022-09-07T18:42:22.306Z,19.62
2022-09-07T18:47:28.473Z,19.34
2022-09-07T18:58:02.270Z,19.04
2022-09-07T19:03:03.292Z,18.60
2022-09-07T19:08:04.390Z,18.39
2022-09-07T19:13:05.252Z,18.46
2022-09-07T19:18:07.082Z,18.54
2022-09-07T19:23:07.906Z,18.69
2022-09-07T19:28:09.119Z,18.32
2022-09-07T19:33:11.615Z,18.12
2022-09-07T19:38:12.475Z,18.17
2022-09-07T19:43:13.282Z,18.24
2022-09-07T19:48:14.032Z,18.26
2022-09-07T19:53:15.332Z,18.23
2022-09-07T19:58:16.118Z,18.17
2022-09-07T20:03:17.038Z,18.08
2022-09-07T20:08:17.905Z,18.06
2022-09-07T20:13:18.683Z,17.89
2022-09-07T20:18:20.368Z,17.64
2022-09-07T20:23:22.453Z,17.84
2022-09-07T20:28:23.591Z,17.61
2022-09-07T20:33:24.463Z,17.51
2022-09-07T20:38:25.200Z,17.38
2022-09-07T20:43:26.599Z,17.24
2022-09-07T20:48:27.623Z,17.26
2022-09-07T20:53:28.702Z,17.30
2022-09-07T20:58:30.673Z,17.40
2022-09-07T21:03:31.613Z,17.19
2022-09-07T21:08:37.538Z,16.97
2022-09-07T21:13:38.589Z,16.74
2022-09-07T21:18:40.128Z,16.74
2022-09-07T21:23:40.870Z,16.71
2022-09-07T21:28:41.836Z,16.54
2022-09-07T21:33:42.655Z,16.54
2022-09-07T21:38:43.442Z,16.53
2022-09-07T21:43:44.385Z,16.55
2022-09-07T21:48:45.755Z,16.40
2022-09-07T21:53:51.604Z,16.45
2022-09-07T21:58:56.400Z,16.40
2022-09-07T22:04:06.335Z,16.34
2022-09-07T22:09:07.175Z,16.34
2022-09-07T22:14:11.119Z,16.40
2022-09-07T22:19:11.978Z,16.48
2022-09-07T22:24:14.324Z,16.57
2022-09-07T22:29:15.061Z,16.48
2022-09-07T22:34:15.946Z,16.61
2022-09-07T22:39:18.044Z,16.62
2022-09-07T22:44:18.826Z,16.52
2022-09-07T22:49:19.596Z,16.51
2022-09-07T22:54:20.435Z,16.41
2022-09-07T22:59:21.238Z,16.47
2022-09-07T23:04:22.225Z,16.39
2022-09-07T23:09:23.063Z,16.30
2022-09-07T23:14:23.809Z,16.31
2022-09-07T23:19:24.606Z,16.40
2022-09-07T23:24:28.718Z,16.32
2022-09-07T23:29:29.483Z,16.38
2022-09-07T23:34:30.588Z,16.35
2022-09-07T23:39:31.431Z,16.37
2022-09-07T23:44:32.651Z,16.37
2022-09-07T23:49:33.449Z,15.60
2022-09-07T23:54:34.638Z,15.77
2022-09-07T23:59:35.827Z,15.84
